Kamloops Airport
CYKA : now visible

Airfield :











YOU CAN JOIN US ON...

 
LOGIN :

Register | Disclaimer

   EN    FR    IT 

 









Legend :    VFR   Marginal VFR   IFR   Intensive IFR   Very Intensive IFR
Visi :
Ceiling :
>= 8 km
>= 3000ft
5 to 8 km
1000 to 3000 ft
1500m to 5 km
500 to 1000 ft
800 to 1500m
200 to 500 ft
< 800m
< 200 ft
Symbols :   Thunderstorms  Fog  Heavy snow  Heavy precipitations  Wind > 20 kt







- Airport Elevation : 1133 ft
- IATA code : YKA


CYKA - Kamloops

CURRENT METAR :
  • 260200Z 27005KT 40SM SCT100 21/09 A3006 RMK AC3 SLP181 DENSITY ALT 2000FT

EXPIRED METARs :
  • 260100Z 26009G15KT 40SM SCT100 23/06 A3005 RMK AC3 SLP177 DENSITY ALT 2300FT
  • 260000Z 28010KT 40SM SCT080 22/08 A3005 RMK AC3 SLP177 DENSITY ALT 2100FT

TAF TAF CYKA
Valid from the 26 at 01:00 until the 26 at 13:00 UTC


260038Z 2601/2613 28010KT P6SM SCT100
BECMG 2605/2607 10005KT
FM260700 10005KT P6SM BKN100 RMK NXT FCST BY 260700Z
No reported NOTAMs for that airfield.



MET'MAP, your aeronautical weather chart ! - Copyright ORBIFLY December 2007 - Disclaimer

ORBIFLY MET'MAP TEAM :

Programming & Development : Alexandra Zaïnal
Concept & Development : Baudouin d'Aumeries
Co-Development & Prog : Marc-Olivier Méhu
Technical & hardware support : Manuel Goepfert

Contact : metmap@orbifly.com




SOURCES & CREDITS :

   NOAA       Earth
Advisory